Time;durP1;ratioP1;P1;durP2;ratioP2;P2;SDS_P1;SDS_P2;PMS_P1;PMS_P2;Temp;Humidity;BMP_temperature;BMP_pressure;BME280_temperature;BME280_humidity;BME280_pressure;Samples;Min_cycle;Max_cycle;Signal;HPM_P1;HPM_P2
2022/06/20 00:00:33;;;;;;;2.88;1.30;;;22.40;54.10;;;;;;5013067;28;20580;-58
2022/06/20 00:02:58;;;;;;;2.38;1.20;;;22.40;54.10;;;;;;4994355;28;20619;-58
2022/06/20 00:05:26;;;;;;;2.47;1.35;;;22.40;54.10;;;;;;5012709;28;20204;-56
2022/06/20 00:07:52;;;;;;;2.35;0.90;;;22.40;54.10;;;;;;5012306;28;20277;-59
2022/06/20 00:10:19;;;;;;;3.05;1.13;;;22.40;54.20;;;;;;5012182;28;20204;-58
2022/06/20 00:12:44;;;;;;;2.53;1.25;;;22.40;54.90;;;;;;5012327;28;20266;-57
2022/06/20 00:15:22;;;;;;;3.05;1.40;;;22.30;54.20;;;;;;5012506;28;20237;-58
2022/06/20 00:17:47;;;;;;;3.38;1.10;;;22.30;54.20;;;;;;5011369;28;20179;-59
2022/06/20 00:20:14;;;;;;;2.45;1.10;;;22.30;54.20;;;;;;5012549;28;20188;-56
2022/06/20 00:22:39;;;;;;;1.58;1.02;;;22.30;54.30;;;;;;5012512;28;20259;-58
2022/06/20 00:25:08;;;;;;;2.28;1.00;;;22.30;54.30;;;;;;5011792;28;20310;-58
2022/06/20 00:27:33;;;;;;;2.20;1.08;;;22.30;54.30;;;;;;5012628;28;20184;-54
2022/06/20 00:29:59;;;;;;;2.97;1.10;;;22.30;54.30;;;;;;5012027;28;20537;-58
2022/06/20 00:32:24;;;;;;;2.33;1.20;;;22.30;54.40;;;;;;4994043;28;20173;-57
2022/06/20 00:34:50;;;;;;;2.47;1.00;;;22.30;54.40;;;;;;5012087;28;20181;-58
2022/06/20 00:37:18;;;;;;;1.67;1.05;;;22.30;54.40;;;;;;5012559;28;20176;-56
2022/06/20 00:39:43;;;;;;;3.05;1.27;;;22.30;54.40;;;;;;5010177;28;20200;-58
2022/06/20 00:42:09;;;;;;;2.50;1.30;;;22.30;54.50;;;;;;5012127;28;20219;-55
2022/06/20 00:44:38;;;;;;;1.55;0.98;;;22.30;54.50;;;;;;5012067;28;20180;-58
2022/06/20 00:47:06;;;;;;;2.40;1.25;;;22.30;54.50;;;;;;5010043;28;20192;-54
2022/06/20 00:49:55;;;;;;;1.77;0.98;;;22.20;54.40;;;;;;5010754;28;20642;-55
2022/06/20 00:52:40;;;;;;;2.55;1.23;;;22.20;54.50;;;;;;5010339;28;20176;-57
2022/06/20 00:55:19;;;;;;;2.10;1.00;;;22.30;54.50;;;;;;5010723;28;20202;-58
2022/06/20 00:58:04;;;;;;;1.88;1.00;;;22.20;54.50;;;;;;4994768;28;20207;-58
2022/06/20 01:00:32;;;;;;;1.52;0.90;;;22.20;54.50;;;;;;5011428;28;20175;-59
2022/06/20 01:03:18;;;;;;;2.08;1.02;;;22.20;54.50;;;;;;4994169;28;20189;-57
2022/06/20 01:05:47;;;;;;;2.20;1.48;;;22.20;54.60;;;;;;5011538;28;20220;-58
2022/06/20 01:08:12;;;;;;;1.33;0.73;;;22.20;55.20;;;;;;5011358;28;20536;-58
2022/06/20 01:11:05;;;;;;;1.45;0.90;;;22.20;54.60;;;;;;5011915;28;20180;-57
2022/06/20 01:13:30;;;;;;;1.42;0.80;;;22.20;54.50;;;;;;5006709;28;20188;-54
2022/06/20 01:16:12;;;;;;;2.15;1.38;;;22.20;54.60;;;;;;5011539;28;20185;-56
2022/06/20 01:18:37;;;;;;;3.30;1.17;;;22.20;54.60;;;;;;5010510;28;20187;-56
2022/06/20 01:21:05;;;;;;;1.92;1.20;;;22.20;54.60;;;;;;4993322;28;20177;-54
2022/06/20 01:23:55;;;;;;;2.75;0.98;;;22.20;54.60;;;;;;5011909;28;20207;-52
2022/06/20 01:26:33;;;;;;;2.10;0.95;;;22.20;54.60;;;;;;5011676;28;20295;-58
2022/06/20 01:29:00;;;;;;;3.95;1.42;;;22.20;54.60;;;;;;5010870;28;20518;-58
2022/06/20 01:31:30;;;;;;;2.67;1.00;;;22.10;54.50;;;;;;5010729;28;20176;-58
2022/06/20 01:33:56;;;;;;;2.65;1.10;;;22.20;55.30;;;;;;5010233;28;20181;-59
2022/06/20 01:39:05;;;;;;;1.98;0.95;;;22.20;54.60;;;;;;4996532;28;20187;-59
2022/06/20 01:44:14;;;;;;;2.33;1.23;;;22.10;54.60;;;;;;4996691;28;20199;-55
2022/06/20 01:46:40;;;;;;;2.90;1.33;;;22.10;54.60;;;;;;5010482;28;20216;-53
2022/06/20 01:49:09;;;;;;;2.00;1.15;;;22.10;54.70;;;;;;5014148;28;20563;-54
2022/06/20 01:51:55;;;;;;;1.95;1.20;;;22.10;54.70;;;;;;5013630;28;20179;-56
2022/06/20 01:54:21;;;;;;;1.83;0.82;;;22.10;54.70;;;;;;5015071;28;20236;-57
2022/06/20 01:56:47;;;;;;;1.63;0.80;;;22.10;54.70;;;;;;4996503;28;20596;-57
2022/06/20 01:59:19;;;;;;;1.50;0.70;;;22.10;54.70;;;;;;5013897;28;20188;-58
2022/06/20 02:01:51;;;;;;;3.15;1.00;;;22.10;54.70;;;;;;4997933;28;20185;-59
2022/06/20 02:04:18;;;;;;;2.72;1.00;;;22.10;54.70;;;;;;5012897;28;20188;-58
2022/06/20 02:06:44;;;;;;;1.33;0.93;;;22.10;54.70;;;;;;5014652;28;20220;-59
2022/06/20 02:09:11;;;;;;;2.10;1.10;;;22.10;54.70;;;;;;4997052;28;20702;-57
2022/06/20 02:11:42;;;;;;;3.40;0.93;;;22.10;54.80;;;;;;5013386;28;20192;-57
2022/06/20 02:14:12;;;;;;;1.70;0.95;;;22.10;54.80;;;;;;5014736;28;20173;-58
2022/06/20 02:16:40;;;;;;;3.20;0.95;;;22.00;54.70;;;;;;4996381;28;20268;-53
2022/06/20 02:19:06;;;;;;;2.10;0.75;;;22.10;55.10;;;;;;5014614;28;20521;-57
2022/06/20 02:21:32;;;;;;;4.35;1.00;;;22.00;54.70;;;;;;5013466;28;20180;-55
2022/06/20 02:24:04;;;;;;;1.67;0.75;;;22.00;54.70;;;;;;5013640;28;20177;-59
2022/06/20 02:26:30;;;;;;;2.80;1.10;;;22.00;54.80;;;;;;4997188;28;20303;-57
2022/06/20 02:29:02;;;;;;;1.98;0.80;;;22.00;54.80;;;;;;5012787;28;20227;-58
2022/06/20 02:31:27;;;;;;;2.83;1.30;;;22.00;54.70;;;;;;5013783;28;20263;-59
2022/06/20 02:33:54;;;;;;;1.52;1.10;;;22.00;54.80;;;;;;4996740;28;20264;-59
2022/06/20 02:36:20;;;;;;;2.17;1.10;;;22.00;54.80;;;;;;5014576;28;20192;-58
2022/06/20 02:38:45;;;;;;;2.13;1.33;;;22.00;54.80;;;;;;5013307;28;20196;-58
2022/06/20 02:41:11;;;;;;;2.22;1.15;;;22.00;54.80;;;;;;5014376;28;20177;-58
2022/06/20 02:43:38;;;;;;;3.60;1.27;;;22.00;54.90;;;;;;4996498;28;20645;-57
2022/06/20 02:46:07;;;;;;;2.25;0.90;;;22.00;54.90;;;;;;5013554;28;20235;-58
2022/06/20 02:48:33;;;;;;;1.30;1.00;;;22.00;54.90;;;;;;4997164;28;20318;-58
2022/06/20 02:51:00;;;;;;;2.72;1.27;;;22.00;54.80;;;;;;4996338;28;20251;-56
2022/06/20 02:53:37;;;;;;;1.33;0.90;;;22.00;54.90;;;;;;4995750;28;20224;-57
2022/06/20 02:56:02;;;;;;;1.63;0.75;;;21.90;54.90;;;;;;5013961;28;20215;-57
2022/06/20 02:58:31;;;;;;;0.70;0.70;;;21.90;54.90;;;;;;4995756;28;20191;-58
2022/06/20 03:01:05;;;;;;;1.88;1.15;;;21.90;55.30;;;;;;4996417;28;20191;-58
2022/06/20 03:03:35;;;;;;;2.22;1.20;;;21.90;55.50;;;;;;5012812;28;20173;-58
2022/06/20 03:06:01;;;;;;;0.95;0.80;;;21.90;54.90;;;;;;5011810;28;20748;-59
2022/06/20 03:08:27;;;;;;;2.50;1.00;;;21.90;54.80;;;;;;5012685;28;20187;-58
2022/06/20 03:10:53;;;;;;;1.40;0.82;;;21.90;54.80;;;;;;5013494;28;20621;-57
2022/06/20 03:13:18;;;;;;;1.90;0.77;;;21.90;54.80;;;;;;5012233;28;20175;-57
2022/06/20 03:15:44;;;;;;;1.55;0.98;;;21.90;54.80;;;;;;5012364;28;20226;-57
2022/06/20 03:18:16;;;;;;;1.42;0.88;;;21.90;54.80;;;;;;5013755;28;20593;-57
2022/06/20 03:20:42;;;;;;;2.90;1.02;;;21.90;54.90;;;;;;5011521;28;20227;-57
2022/06/20 03:23:40;;;;;;;1.08;0.80;;;21.90;54.80;;;;;;5012362;28;20177;-57
2022/06/20 03:26:09;;;;;;;1.00;0.90;;;21.90;54.90;;;;;;5004591;28;20243;-58
2022/06/20 03:28:35;;;;;;;2.33;1.00;;;21.90;54.90;;;;;;4995343;28;20226;-59
2022/06/20 03:31:01;;;;;;;2.83;0.90;;;21.90;54.90;;;;;;5013367;28;20185;-58
2022/06/20 03:33:26;;;;;;;1.10;0.60;;;21.90;54.90;;;;;;5013416;28;20180;-59
2022/06/20 03:35:57;;;;;;;0.70;0.63;;;21.80;54.90;;;;;;5012432;28;20177;-58
2022/06/20 03:38:23;;;;;;;1.63;1.10;;;21.90;54.90;;;;;;4996210;28;20223;-58
2022/06/20 03:40:49;;;;;;;2.50;0.75;;;21.90;54.90;;;;;;5012588;28;20176;-58
2022/06/20 03:43:18;;;;;;;3.28;1.10;;;21.90;54.90;;;;;;5012104;28;20211;-58
2022/06/20 03:45:48;;;;;;;1.52;0.80;;;21.80;54.90;;;;;;4995631;28;20268;-57
2022/06/20 03:48:18;;;;;;;1.92;1.15;;;21.90;54.90;;;;;;5011559;28;20264;-57
2022/06/20 03:50:54;;;;;;;2.55;1.08;;;21.80;54.80;;;;;;5012029;28;20206;-57
2022/06/20 03:53:24;;;;;;;0.90;0.70;;;21.80;54.90;;;;;;4996142;28;20224;-57
2022/06/20 03:55:57;;;;;;;2.50;0.80;;;21.80;54.90;;;;;;5010699;28;20181;-54
2022/06/20 03:58:30;;;;;;;1.92;0.77;;;21.80;54.80;;;;;;4995937;28;20200;-57
2022/06/20 04:01:03;;;;;;;1.20;0.70;;;21.80;54.90;;;;;;4996067;28;20177;-57
2022/06/20 04:03:38;;;;;;;1.63;0.85;;;21.80;54.80;;;;;;5010960;28;20242;-57
2022/06/20 04:06:09;;;;;;;1.25;0.82;;;21.80;54.90;;;;;;5011297;28;20295;-57
2022/06/20 04:11:50;;;;;;;1.90;0.63;;;21.80;54.90;;;;;;5012140;28;20622;-56
2022/06/20 04:14:21;;;;;;;1.67;0.70;;;21.80;54.80;;;;;;5011574;28;20295;-56
2022/06/20 04:16:53;;;;;;;1.20;0.60;;;21.80;54.90;;;;;;5010356;28;20187;-56
2022/06/20 04:19:30;;;;;;;0.65;0.65;;;21.90;54.90;;;;;;5011267;28;20259;-56
2022/06/20 04:22:09;;;;;;;2.15;0.77;;;21.90;54.90;;;;;;5011026;28;20176;-55
2022/06/20 04:24:57;;;;;;;1.52;0.82;;;21.90;54.80;;;;;;4994171;28;20539;-56
2022/06/20 04:27:22;;;;;;;1.27;0.75;;;21.90;55.00;;;;;;5011302;28;20196;-55
2022/06/20 04:29:53;;;;;;;0.70;0.60;;;21.90;54.70;;;;;;5011822;28;20172;-56
2022/06/20 04:32:20;;;;;;;3.03;1.02;;;21.90;54.70;;;;;;4995453;28;20242;-57
2022/06/20 04:35:02;;;;;;;3.10;0.88;;;21.90;54.80;;;;;;5010840;28;20184;-58
2022/06/20 04:37:38;;;;;;;1.73;1.00;;;21.90;54.70;;;;;;5011541;28;20188;-57
2022/06/20 04:40:05;;;;;;;1.23;0.75;;;21.90;54.80;;;;;;4994949;28;20216;-56
2022/06/20 04:43:06;;;;;;;1.88;0.90;;;21.90;54.70;;;;;;5010755;28;20219;-54
2022/06/20 04:45:49;;;;;;;2.67;0.90;;;21.90;54.70;;;;;;4998093;28;20583;-55
2022/06/20 04:48:17;;;;;;;0.65;0.55;;;21.90;54.70;;;;;;4995675;28;20180;-57
2022/06/20 04:50:45;;;;;;;1.17;0.70;;;22.00;54.90;;;;;;5012202;28;20312;-53
2022/06/20 04:53:17;;;;;;;2.90;1.15;;;21.90;54.70;;;;;;5010282;28;20245;-53
2022/06/20 04:55:50;;;;;;;1.58;0.77;;;21.90;54.80;;;;;;5011043;28;20180;-58
2022/06/20 04:58:18;;;;;;;1.85;1.40;;;21.90;54.90;;;;;;5010491;28;20177;-58
2022/06/20 05:00:45;;;;;;;2.97;0.90;;;21.90;54.80;;;;;;5010720;28;20177;-57
2022/06/20 05:03:18;;;;;;;2.75;1.17;;;21.90;54.90;;;;;;5012193;28;20172;-59
2022/06/20 05:05:45;;;;;;;2.08;0.88;;;21.90;54.80;;;;;;4993852;28;20216;-58
2022/06/20 05:08:12;;;;;;;2.30;0.80;;;21.90;54.80;;;;;;5011959;28;20586;-58
2022/06/20 05:10:46;;;;;;;1.05;0.90;;;21.90;54.70;;;;;;4994360;28;20180;-55
2022/06/20 05:13:23;;;;;;;1.35;1.00;;;21.90;54.80;;;;;;4994519;28;20255;-57
2022/06/20 05:15:49;;;;;;;0.82;0.60;;;21.90;54.90;;;;;;4994427;28;20172;-55
2022/06/20 05:18:48;;;;;;;1.48;0.80;;;21.90;54.80;;;;;;5010629;28;20673;-55
2022/06/20 05:21:17;;;;;;;1.80;1.00;;;22.00;54.90;;;;;;4978067;28;20195;-52
2022/06/20 05:23:44;;;;;;;0.65;0.60;;;22.00;54.90;;;;;;5015445;28;20203;-57
2022/06/20 05:26:14;;;;;;;1.90;0.90;;;22.00;54.80;;;;;;4997534;28;20212;-58
2022/06/20 05:28:39;;;;;;;1.48;0.90;;;22.00;54.90;;;;;;5014562;28;20176;-58
2022/06/20 05:31:05;;;;;;;1.92;0.80;;;22.00;54.80;;;;;;5014282;28;20271;-59
2022/06/20 05:33:41;;;;;;;1.08;0.65;;;22.00;54.70;;;;;;4997610;28;20176;-59
2022/06/20 05:36:29;;;;;;;2.15;1.08;;;22.00;54.70;;;;;;4998151;28;20184;-58
2022/06/20 05:39:01;;;;;;;1.40;0.80;;;22.00;54.70;;;;;;5015191;28;20177;-58
2022/06/20 05:41:27;;;;;;;1.55;0.90;;;22.00;54.80;;;;;;4997616;28;20247;-59
2022/06/20 05:43:52;;;;;;;3.22;1.08;;;22.00;54.80;;;;;;5014007;28;20216;-57
2022/06/20 05:46:33;;;;;;;2.67;1.02;;;22.00;54.90;;;;;;5015349;28;20617;-55
2022/06/20 05:49:04;;;;;;;2.85;1.35;;;22.00;54.80;;;;;;4997013;28;20172;-56
2022/06/20 05:51:30;;;;;;;1.20;0.80;;;22.00;54.80;;;;;;5014130;28;20203;-56
2022/06/20 05:54:09;;;;;;;1.50;0.70;;;22.00;54.80;;;;;;5013508;28;20251;-56
2022/06/20 05:56:43;;;;;;;2.63;0.98;;;22.00;54.80;;;;;;4998014;28;20618;-56
2022/06/20 05:59:27;;;;;;;1.25;0.90;;;22.00;54.90;;;;;;5013785;28;20190;-56
2022/06/20 06:02:15;;;;;;;3.00;1.05;;;21.90;54.90;;;;;;5013043;28;20241;-58
2022/06/20 06:05:00;;;;;;;2.05;0.98;;;21.90;54.90;;;;;;5013923;28;20184;-58
2022/06/20 06:07:40;;;;;;;2.72;1.00;;;22.00;54.90;;;;;;5014928;28;20197;-57
2022/06/20 06:10:30;;;;;;;0.75;0.63;;;22.00;54.80;;;;;;5013061;28;20279;-56
2022/06/20 06:13:13;;;;;;;1.55;0.90;;;22.00;54.90;;;;;;5013427;28;20173;-57
2022/06/20 06:18:39;;;;;;;1.80;1.00;;;22.00;54.90;;;;;;4999954;28;20263;-57
2022/06/20 06:21:04;;;;;;;1.20;0.90;;;22.00;54.90;;;;;;4997217;28;20559;-56
2022/06/20 06:23:30;;;;;;;2.17;0.93;;;22.00;54.70;;;;;;5012591;28;20168;-57
2022/06/20 06:25:55;;;;;;;1.60;1.02;;;22.00;54.70;;;;;;5014402;28;20222;-58
2022/06/20 06:28:22;;;;;;;1.38;0.70;;;22.00;54.70;;;;;;5013239;28;20168;-57
2022/06/20 06:30:59;;;;;;;1.67;1.02;;;22.00;54.70;;;;;;5012132;28;20185;-57
2022/06/20 06:33:34;;;;;;;2.38;0.93;;;22.00;54.60;;;;;;5013176;28;20198;-58
2022/06/20 06:36:09;;;;;;;2.33;0.90;;;22.10;54.60;;;;;;4997748;28;20183;-57
2022/06/20 06:38:38;;;;;;;0.95;0.70;;;22.00;54.60;;;;;;5013644;28;20180;-59
2022/06/20 06:41:06;;;;;;;0.80;0.80;;;22.00;54.70;;;;;;4996745;28;20326;-58
2022/06/20 06:43:38;;;;;;;1.67;0.90;;;22.00;54.70;;;;;;5012560;28;20522;-57
2022/06/20 06:46:05;;;;;;;1.23;0.88;;;22.00;54.80;;;;;;5012986;28;20645;-57
2022/06/20 06:48:41;;;;;;;2.10;1.00;;;22.00;54.90;;;;;;5012804;28;20215;-56
2022/06/20 06:51:14;;;;;;;2.25;0.80;;;22.00;54.90;;;;;;5013308;28;20184;-57
2022/06/20 06:54:20;;;;;;;2.00;0.93;;;22.00;54.90;;;;;;4996522;28;20236;-59
2022/06/20 06:56:58;;;;;;;4.18;1.00;;;22.00;54.90;;;;;;4972395;28;20192;-57
2022/06/20 06:59:40;;;;;;;2.90;0.75;;;22.10;54.90;;;;;;4957207;28;20181;-59
2022/06/20 07:02:11;;;;;;;3.88;1.15;;;22.10;54.90;;;;;;4993168;28;20198;-59
2022/06/20 07:04:47;;;;;;;3.88;0.80;;;22.20;54.80;;;;;;5011949;28;20215;-59
2022/06/20 07:07:17;;;;;;;2.08;0.90;;;22.20;54.80;;;;;;4997490;28;20247;-58
2022/06/20 07:09:46;;;;;;;3.35;1.40;;;22.20;54.80;;;;;;5013567;28;20181;-58
2022/06/20 07:12:35;;;;;;;4.93;1.20;;;22.20;54.80;;;;;;5011785;28;20176;-58
2022/06/20 07:15:13;;;;;;;2.63;0.98;;;22.20;54.80;;;;;;4997035;28;20180;-58
2022/06/20 07:17:56;;;;;;;5.80;1.10;;;22.10;54.90;;;;;;5013559;28;20261;-59
2022/06/20 07:20:30;;;;;;;2.28;1.40;;;22.10;55.00;;;;;;5012751;28;20581;-57
2022/06/20 07:22:56;;;;;;;2.50;1.10;;;22.00;55.00;;;;;;4996236;28;20188;-58
2022/06/20 07:25:29;;;;;;;2.42;1.02;;;22.10;55.10;;;;;;4995901;28;20283;-58
2022/06/20 07:27:59;;;;;;;4.30;1.35;;;22.10;55.00;;;;;;5012648;28;20264;-58
2022/06/20 07:30:28;;;;;;;3.22;1.30;;;22.10;54.90;;;;;;5013630;28;20584;-59
2022/06/20 07:32:56;;;;;;;2.10;1.13;;;22.20;54.80;;;;;;5011140;28;20262;-59
2022/06/20 07:35:26;;;;;;;3.72;1.38;;;22.20;54.80;;;;;;5013180;28;20287;-59
2022/06/20 07:38:27;;;;;;;7.55;1.30;;;22.20;54.70;;;;;;5011670;28;20611;-59
2022/06/20 07:41:04;;;;;;;2.38;1.13;;;22.30;54.70;;;;;;5010092;28;20599;-58
2022/06/20 07:43:35;;;;;;;1.80;0.98;;;22.30;54.60;;;;;;5011845;28;20199;-59
2022/06/20 07:46:30;;;;;;;2.13;1.13;;;22.30;54.50;;;;;;4994787;28;20224;-58
2022/06/20 07:48:56;;;;;;;1.58;1.10;;;22.30;54.50;;;;;;4985634;28;20184;-57
2022/06/20 07:51:32;;;;;;;1.20;0.90;;;22.40;54.50;;;;;;5011641;28;20239;-58
2022/06/20 07:54:09;;;;;;;3.28;1.30;;;22.30;54.50;;;;;;4995219;28;20600;-58
2022/06/20 07:56:50;;;;;;;2.85;1.30;;;22.30;54.60;;;;;;5012743;28;20187;-59
2022/06/20 07:59:46;;;;;;;1.98;1.05;;;22.30;54.70;;;;;;4995489;28;20173;-59
2022/06/20 08:02:50;;;;;;;2.53;1.25;;;22.20;54.80;;;;;;5009473;28;20196;-59
2022/06/20 08:05:21;;;;;;;3.60;1.17;;;22.20;54.80;;;;;;5012141;28;20331;-59
2022/06/20 08:08:22;;;;;;;1.42;1.20;;;22.20;54.80;;;;;;5011170;28;20191;-59
2022/06/20 08:11:07;;;;;;;3.42;1.17;;;22.10;54.80;;;;;;5012259;28;20187;-59
2022/06/20 08:13:37;;;;;;;3.17;1.52;;;22.20;54.70;;;;;;5011626;28;20173;-57
2022/06/20 08:16:17;;;;;;;3.65;1.38;;;22.30;54.70;;;;;;5010287;28;20664;-57
2022/06/20 08:18:42;;;;;;;2.88;1.20;;;22.30;54.60;;;;;;4995133;28;20169;-58
2022/06/20 08:21:18;;;;;;;2.40;1.20;;;22.40;54.60;;;;;;5011187;28;20176;-58
2022/06/20 08:23:48;;;;;;;1.98;1.30;;;22.40;54.40;;;;;;4994671;28;20214;-59
2022/06/20 08:26:23;;;;;;;2.25;1.33;;;22.40;54.50;;;;;;5011908;28;20250;-58
2022/06/20 08:28:51;;;;;;;2.63;1.00;;;22.40;54.50;;;;;;5010934;28;20231;-59
2022/06/20 08:31:24;;;;;;;2.42;1.40;;;22.30;54.60;;;;;;5010355;28;20326;-58
2022/06/20 08:33:56;;;;;;;1.75;1.13;;;22.40;54.60;;;;;;4995231;28;20192;-59
2022/06/20 08:36:32;;;;;;;3.08;1.65;;;22.30;55.20;;;;;;4994459;28;20191;-58
2022/06/20 08:39:14;;;;;;;2.80;1.60;;;22.30;54.60;;;;;;5010805;28;20233;-59
2022/06/20 08:42:05;;;;;;;2.53;1.10;;;22.40;54.60;;;;;;4996382;28;20180;-59
2022/06/20 08:44:30;;;;;;;1.65;1.15;;;22.40;54.40;;;;;;4981921;28;20191;-58
2022/06/20 08:47:33;;;;;;;2.53;1.30;;;22.40;54.40;;;;;;5011721;28;20666;-57
2022/06/20 08:50:10;;;;;;;2.83;1.20;;;22.40;54.40;;;;;;5011697;28;20650;-57
2022/06/20 08:52:42;;;;;;;3.83;1.30;;;22.40;54.50;;;;;;5011912;28;20222;-58
2022/06/20 08:55:39;;;;;;;2.70;1.45;;;22.30;54.50;;;;;;4992583;28;20204;-59
2022/06/20 08:58:17;;;;;;;1.42;1.20;;;22.30;54.60;;;;;;4990218;28;20636;-59
2022/06/20 09:01:10;;;;;;;1.77;1.20;;;22.40;54.60;;;;;;4990752;28;20642;-59
2022/06/20 09:03:54;;;;;;;2.92;1.48;;;22.50;54.40;;;;;;4992134;28;20184;-59
2022/06/20 09:06:37;;;;;;;2.28;1.20;;;22.50;54.20;;;;;;4991736;28;20216;-59
2022/06/20 09:09:16;;;;;;;2.58;1.38;;;22.50;54.20;;;;;;4991014;28;20177;-56
2022/06/20 09:11:52;;;;;;;1.30;1.15;;;22.60;54.20;;;;;;4990270;28;20181;-58
2022/06/20 09:14:39;;;;;;;1.88;1.17;;;22.60;54.10;;;;;;4990841;28;20706;-58
2022/06/20 09:17:28;;;;;;;2.42;1.60;;;22.60;54.00;;;;;;4992156;28;20181;-56
2022/06/20 09:20:13;;;;;;;4.80;1.60;;;22.60;54.00;;;;;;4991420;28;20173;-58
2022/06/20 09:23:13;;;;;;;2.65;1.80;;;22.70;54.10;;;;;;4976779;28;20181;-58
2022/06/20 09:26:12;;;;;;;3.65;1.98;;;22.70;54.00;;;;;;4982829;28;20578;-57
2022/06/20 09:28:52;;;;;;;3.40;1.58;;;22.70;54.20;;;;;;4992130;28;20265;-58
2022/06/20 09:31:24;;;;;;;1.98;1.58;;;22.70;54.00;;;;;;4992201;28;20177;-59
2022/06/20 09:34:03;;;;;;;2.20;1.42;;;22.70;54.00;;;;;;4991114;28;20205;-59
2022/06/20 09:36:36;;;;;;;2.33;1.40;;;22.60;54.00;;;;;;4991898;28;20636;-58
2022/06/20 09:39:40;;;;;;;2.38;1.40;;;22.60;54.00;;;;;;4991103;28;20220;-59
2022/06/20 09:42:06;;;;;;;2.33;1.48;;;22.60;54.00;;;;;;4990721;28;20188;-59
2022/06/20 09:44:51;;;;;;;2.47;1.25;;;22.70;54.00;;;;;;4991779;28;20178;-57
2022/06/20 09:47:24;;;;;;;1.50;1.30;;;22.70;53.90;;;;;;4991166;28;20713;-56
2022/06/20 09:50:16;;;;;;;1.55;1.27;;;22.80;53.80;;;;;;4990373;28;20468;-58
2022/06/20 09:53:06;;;;;;;3.33;1.50;;;22.80;53.80;;;;;;4991079;28;20170;-58
2022/06/20 09:55:43;;;;;;;2.28;1.70;;;22.70;53.90;;;;;;5011034;28;20267;-56
2022/06/20 09:58:30;;;;;;;2.15;1.30;;;22.70;53.90;;;;;;5010213;28;20176;-58
2022/06/20 10:01:16;;;;;;;1.65;1.23;;;22.70;53.90;;;;;;5009183;28;20455;-58
2022/06/20 10:04:01;;;;;;;1.80;1.65;;;22.80;53.80;;;;;;5009756;28;20580;-58
2022/06/20 10:06:44;;;;;;;1.85;1.40;;;22.80;53.70;;;;;;5010072;28;20216;-58
2022/06/20 10:09:38;;;;;;;2.80;1.55;;;22.90;53.70;;;;;;5011977;28;20264;-58
2022/06/20 10:12:21;;;;;;;3.00;1.60;;;22.90;53.60;;;;;;5014892;28;20303;-58
2022/06/20 10:15:08;;;;;;;1.40;1.30;;;22.90;53.60;;;;;;5012671;28;20235;-56
2022/06/20 10:17:52;;;;;;;1.85;1.50;;;22.90;53.50;;;;;;5014789;28;20202;-58
2022/06/20 10:20:51;;;;;;;2.60;1.85;;;22.90;53.40;;;;;;5013521;28;20188;-58
2022/06/20 10:23:44;;;;;;;2.58;1.70;;;23.00;53.50;;;;;;5000074;28;20246;-58
2022/06/20 10:26:26;;;;;;;3.35;1.85;;;22.90;53.50;;;;;;5014323;28;20615;-58
2022/06/20 10:29:16;;;;;;;2.55;1.45;;;23.00;53.70;;;;;;5012155;28;20223;-59
2022/06/20 10:31:50;;;;;;;1.10;1.00;;;23.00;53.60;;;;;;5012993;28;20180;-57
2022/06/20 10:34:21;;;;;;;2.78;1.67;;;23.00;53.60;;;;;;5014357;28;20179;-59
2022/06/20 10:37:09;;;;;;;3.88;1.50;;;23.10;53.60;;;;;;5013234;28;20181;-59
2022/06/20 10:39:46;;;;;;;4.13;1.95;;;23.10;53.50;;;;;;5014354;28;20179;-58
2022/06/20 10:42:33;;;;;;;3.92;1.85;;;23.10;53.50;;;;;;5013040;28;20172;-56
2022/06/20 10:45:17;;;;;;;6.10;1.92;;;23.10;53.60;;;;;;5013203;28;20185;-58
2022/06/20 10:47:58;;;;;;;3.00;1.45;;;23.10;53.50;;;;;;5014438;28;20418;-57
2022/06/20 10:50:32;;;;;;;3.03;1.83;;;23.10;53.40;;;;;;4997576;28;20638;-57
2022/06/20 10:53:17;;;;;;;2.90;1.63;;;23.10;53.40;;;;;;5012763;28;20258;-58
2022/06/20 10:56:12;;;;;;;3.28;1.63;;;23.00;53.40;;;;;;5014126;28;20278;-59
2022/06/20 10:59:02;;;;;;;1.60;1.45;;;23.00;53.40;;;;;;5011781;28;20661;-58
2022/06/20 11:02:08;;;;;;;3.42;1.65;;;23.10;53.40;;;;;;5012861;28;20661;-58
2022/06/20 11:04:50;;;;;;;2.88;1.80;;;23.10;53.30;;;;;;5011016;28;20180;-59
2022/06/20 11:07:40;;;;;;;2.90;1.70;;;23.10;53.40;;;;;;5013104;28;20616;-58
2022/06/20 11:10:47;;;;;;;3.38;1.40;;;23.20;53.30;;;;;;5013992;28;20181;-58
2022/06/20 11:13:26;;;;;;;2.10;1.30;;;23.20;53.20;;;;;;5012744;28;20231;-58
2022/06/20 11:15:54;;;;;;;2.20;1.40;;;23.20;53.10;;;;;;5013523;28;20268;-58
2022/06/20 11:18:44;;;;;;;3.55;1.45;;;23.20;53.10;;;;;;5013044;28;20235;-58
2022/06/20 11:22:00;;;;;;;1.98;1.33;;;23.30;53.00;;;;;;5012771;28;20172;-57
2022/06/20 11:24:46;;;;;;;1.63;1.20;;;23.20;53.00;;;;;;4990733;28;20316;-58
2022/06/20 11:27:55;;;;;;;3.30;1.58;;;23.10;53.20;;;;;;5011855;28;20216;-58
2022/06/20 11:30:28;;;;;;;4.45;1.42;;;23.10;53.20;;;;;;5012788;28;20246;-58
2022/06/20 11:33:09;;;;;;;2.45;1.50;;;23.00;53.20;;;;;;5011121;28;20173;-59
2022/06/20 11:35:43;;;;;;;4.63;2.00;;;23.00;53.30;;;;;;4996615;28;20183;-59
2022/06/20 11:38:24;;;;;;;2.25;1.40;;;23.00;53.30;;;;;;4996466;28;20172;-59
2022/06/20 11:40:58;;;;;;;4.03;2.10;;;23.00;53.30;;;;;;5012325;28;20220;-59
2022/06/20 11:44:11;;;;;;;3.40;1.40;;;23.00;53.30;;;;;;5013195;28;20180;-59
2022/06/20 11:46:44;;;;;;;2.65;1.77;;;23.00;53.20;;;;;;4979139;28;20216;-58
2022/06/20 11:49:25;;;;;;;4.63;1.50;;;23.00;53.20;;;;;;5005990;28;20180;-58
2022/06/20 11:52:06;;;;;;;3.53;1.60;;;22.90;53.10;;;;;;5011659;28;20179;-59
2022/06/20 11:54:50;;;;;;;3.88;1.75;;;22.90;53.30;;;;;;5011216;28;20227;-58
2022/06/20 11:57:34;;;;;;;8.13;1.73;;;22.90;53.30;;;;;;5012964;28;20183;-59
2022/06/20 12:00:04;;;;;;;4.53;1.73;;;22.90;53.30;;;;;;5012182;28;20691;-59
2022/06/20 12:02:55;;;;;;;4.30;1.75;;;23.00;53.20;;;;;;5012025;28;20180;-59
2022/06/20 12:05:27;;;;;;;1.80;1.33;;;23.10;53.00;;;;;;5007968;28;20178;-59
2022/06/20 12:08:15;;;;;;;2.97;1.60;;;23.20;52.90;;;;;;5011987;28;20303;-59
2022/06/20 12:10:47;;;;;;;7.57;1.70;;;23.10;52.90;;;;;;5012810;28;20183;-58
2022/06/20 12:13:23;;;;;;;3.72;1.90;;;23.20;52.90;;;;;;5013125;28;20259;-58
2022/06/20 12:16:14;;;;;;;6.97;1.90;;;23.20;52.70;;;;;;4994820;28;20225;-58
2022/06/20 12:24:31;;;;;;;6.53;1.60;;;23.30;52.80;;;;;;5011826;28;20201;-58
2022/06/20 12:26:57;;;;;;;4.95;2.03;;;23.20;52.90;;;;;;4994658;28;20212;-60
2022/06/20 12:29:24;;;;;;;3.47;1.90;;;23.40;52.70;;;;;;5011746;28;20566;-58
2022/06/20 12:31:54;;;;;;;3.25;1.70;;;23.30;52.80;;;;;;5010546;28;20638;-58
2022/06/20 12:34:39;;;;;;;6.63;1.70;;;23.40;52.90;;;;;;4995548;28;20177;-59
2022/06/20 12:37:12;;;;;;;10.90;2.13;;;23.30;52.80;;;;;;4996254;28;20181;-58
2022/06/20 12:39:41;;;;;;;4.03;1.48;;;23.30;52.80;;;;;;4995030;28;20210;-58
2022/06/20 12:42:22;;;;;;;2.97;1.60;;;23.30;52.70;;;;;;4995214;28;20180;-57
2022/06/20 12:44:57;;;;;;;4.65;1.63;;;23.30;53.00;;;;;;5010802;28;20280;-58
2022/06/20 12:47:31;;;;;;;3.58;1.45;;;23.40;52.90;;;;;;5010964;28;20293;-58
2022/06/20 12:50:17;;;;;;;2.50;1.77;;;23.30;52.80;;;;;;5010928;28;20715;-58
2022/06/20 12:53:02;;;;;;;3.28;1.73;;;23.30;52.70;;;;;;5010803;28;20187;-58
2022/06/20 12:55:34;;;;;;;3.08;1.50;;;23.30;52.70;;;;;;5010871;28;20271;-57
2022/06/20 12:58:18;;;;;;;5.00;2.00;;;23.30;52.80;;;;;;5009789;28;20642;-58
2022/06/20 13:00:50;;;;;;;4.80;1.70;;;23.20;52.90;;;;;;5010658;28;20190;-58
2022/06/20 13:03:52;;;;;;;3.47;1.80;;;23.20;52.90;;;;;;5010583;28;20185;-59
2022/06/20 13:06:31;;;;;;;2.47;1.50;;;23.20;53.10;;;;;;5010841;28;20295;-58
2022/06/20 13:09:08;;;;;;;2.75;1.65;;;23.20;53.00;;;;;;5011824;28;20177;-56
2022/06/20 13:11:55;;;;;;;4.07;1.52;;;23.20;53.00;;;;;;5011338;28;20184;-55
2022/06/20 13:14:34;;;;;;;4.47;1.80;;;23.20;52.90;;;;;;4996350;28;20175;-56
2022/06/20 13:17:23;;;;;;;4.88;1.60;;;23.30;52.80;;;;;;5010300;28;20548;-58
2022/06/20 13:20:16;;;;;;;4.35;1.90;;;23.40;52.60;;;;;;5011599;28;20597;-58
2022/06/20 13:22:56;;;;;;;5.20;1.77;;;23.40;52.60;;;;;;5010391;28;20193;-58
2022/06/20 13:25:41;;;;;;;6.03;1.83;;;23.30;52.50;;;;;;4994418;28;20634;-58
2022/06/20 13:28:26;;;;;;;4.90;1.80;;;23.20;52.50;;;;;;5010432;28;20191;-58
2022/06/20 13:31:04;;;;;;;5.55;1.80;;;23.20;52.60;;;;;;4994947;28;20180;-59
2022/06/20 13:33:51;;;;;;;3.47;1.58;;;23.10;52.60;;;;;;5009676;28;20322;-59
2022/06/20 13:36:23;;;;;;;4.60;1.60;;;23.20;52.60;;;;;;5011956;28;20310;-58
2022/06/20 13:38:58;;;;;;;4.22;1.65;;;23.20;52.60;;;;;;5009393;28;20172;-59
2022/06/20 13:41:38;;;;;;;4.60;1.80;;;23.20;52.60;;;;;;5011602;28;20204;-57
2022/06/20 13:44:22;;;;;;;3.13;1.55;;;23.20;52.50;;;;;;5012705;28;20498;-58
2022/06/20 13:46:58;;;;;;;3.13;1.35;;;23.20;52.50;;;;;;5014383;28;20242;-58
2022/06/20 13:49:35;;;;;;;3.55;1.40;;;23.10;52.50;;;;;;5014047;28;20221;-57
2022/06/20 13:52:17;;;;;;;2.72;1.25;;;23.30;52.40;;;;;;4998564;28;20184;-58